Time;durP1;ratioP1;P1;durP2;ratioP2;P2;SDS_P1;SDS_P2;PMS_P1;PMS_P2;Temp;Humidity;BMP_temperature;BMP_pressure;BME280_temperature;BME280_humidity;BME280_pressure;Samples;Min_cycle;Max_cycle;Signal;HPM_P1;HPM_P2
2023/03/10 00:04:46;;;;;;;1.48;0.47;;;;;;;10.05;100.00;98232.72;20823956;28;20064;-69
2023/03/10 00:14:47;;;;;;;1.88;0.50;;;;;;;10.00;100.00;98218.09;20832270;28;20136;-70
2023/03/10 00:24:48;;;;;;;2.03;0.60;;;;;;;10.03;100.00;98199.66;20827517;28;20450;-70
2023/03/10 00:34:50;;;;;;;2.58;0.70;;;;;;;9.92;100.00;98211.56;20822079;28;20053;-71
2023/03/10 00:44:51;;;;;;;2.17;0.80;;;;;;;9.90;100.00;98182.00;20820693;28;20095;-71
2023/03/10 00:54:52;;;;;;;2.15;0.68;;;;;;;9.70;100.00;98177.75;20817746;28;20049;-72
2023/03/10 01:04:54;;;;;;;1.92;0.60;;;;;;;9.49;100.00;98161.34;20818701;28;20049;-72
2023/03/10 01:14:55;;;;;;;2.83;0.60;;;;;;;9.40;100.00;98151.31;20818516;28;20145;-72
2023/03/10 01:24:56;;;;;;;3.40;0.57;;;;;;;9.36;100.00;98141.94;20817722;28;20103;-72
2023/03/10 01:34:58;;;;;;;2.80;0.65;;;;;;;9.26;100.00;98133.69;20816115;28;20061;-72
2023/03/10 01:44:59;;;;;;;3.67;0.82;;;;;;;9.20;100.00;98128.75;20816255;28;20414;-73
2023/03/10 01:55:00;;;;;;;6.78;1.08;;;;;;;9.08;100.00;98090.16;20813981;28;20050;-73
2023/03/10 02:05:01;;;;;;;4.28;1.25;;;;;;;9.02;100.00;98073.03;20814763;28;20053;-73
2023/03/10 02:15:03;;;;;;;4.78;1.25;;;;;;;8.96;100.00;98048.06;20814011;28;20045;-73
2023/03/10 02:25:04;;;;;;;6.53;1.88;;;;;;;8.96;100.00;98048.06;20813569;28;20452;-74
2023/03/10 02:35:06;;;;;;;4.85;1.38;;;;;;;9.04;100.00;98041.63;20812907;28;20084;-71
2023/03/10 02:45:07;;;;;;;6.78;1.52;;;;;;;9.10;100.00;98041.31;20813572;28;20049;-71
2023/03/10 02:55:08;;;;;;;4.88;1.50;;;;;;;9.29;100.00;98015.16;20811615;28;20119;-72
2023/03/10 03:05:09;;;;;;;2.80;0.80;;;;;;;9.34;100.00;98032.34;20808340;28;20072;-71
2023/03/10 03:15:11;;;;;;;3.85;1.13;;;;;;;9.31;100.00;98014.19;20828039;28;20142;-73
2023/03/10 03:25:12;;;;;;;4.18;0.93;;;;;;;9.32;100.00;97996.75;20827490;28;20053;-71
2023/03/10 03:35:14;;;;;;;5.07;0.90;;;;;;;9.27;100.00;97989.16;20826311;28;20057;-71
2023/03/10 03:45:16;;;;;;;3.00;0.88;;;;;;;9.29;100.00;97971.63;20825059;28;20054;-72
2023/03/10 03:55:17;;;;;;;2.95;0.82;;;;;;;9.27;100.00;97978.69;20825214;28;20115;-73
2023/03/10 04:05:18;;;;;;;3.20;0.80;;;;;;;9.25;100.00;97980.56;20823220;28;20548;-73
2023/03/10 04:15:19;;;;;;;3.60;1.10;;;;;;;9.02;100.00;97963.41;20822884;28;20046;-72
2023/03/10 04:25:21;;;;;;;2.50;0.98;;;;;;;8.86;100.00;97951.97;20821981;28;20049;-73
2023/03/10 04:35:22;;;;;;;5.95;1.20;;;;;;;8.92;100.00;97921.25;20821222;28;20545;-72
2023/03/10 04:45:23;;;;;;;5.30;1.42;;;;;;;8.81;100.00;97925.28;20821980;28;20057;-74
2023/03/10 04:55:25;;;;;;;4.03;1.35;;;;;;;8.74;100.00;97932.56;20819733;28;20108;-75
2023/03/10 05:05:26;;;;;;;4.53;0.82;;;;;;;8.58;100.00;97898.53;20818523;28;20053;-74
2023/03/10 05:15:27;;;;;;;5.90;1.27;;;;;;;8.58;100.00;97895.09;20823236;28;20054;-75
2023/03/10 05:25:29;;;;;;;4.95;1.20;;;;;;;8.63;100.00;97882.69;20829568;28;20092;-74
2023/03/10 05:35:30;;;;;;;5.60;1.30;;;;;;;8.62;100.00;97876.59;20814921;28;20046;-74
2023/03/10 05:45:31;;;;;;;8.95;1.58;;;;;;;8.70;100.00;97863.19;20815996;28;20076;-73
2023/03/10 05:55:33;;;;;;;4.78;1.17;;;;;;;8.87;100.00;97844.94;20815107;28;20119;-74
2023/03/10 06:05:34;;;;;;;9.05;1.42;;;;;;;8.87;100.00;97844.94;20813874;28;20057;-74
2023/03/10 06:15:35;;;;;;;7.40;2.10;;;;;;;8.85;100.00;97844.16;20815109;28;20100;-74
2023/03/10 06:25:37;;;;;;;5.20;1.40;;;;;;;8.86;100.00;97835.44;20814111;28;20053;-74
2023/03/10 06:35:38;;;;;;;4.45;1.50;;;;;;;9.08;100.00;97829.13;20813362;28;20426;-75
2023/03/10 06:45:40;;;;;;;6.20;1.15;;;;;;;9.17;100.00;97841.72;20810626;28;20063;-75
2023/03/10 06:55:41;;;;;;;5.18;1.20;;;;;;;9.40;100.00;97833.53;20804510;28;20111;-74
2023/03/10 07:05:42;;;;;;;3.80;1.20;;;;;;;9.91;100.00;97847.38;20806981;28;20045;-73
2023/03/10 07:15:43;;;;;;;6.82;1.15;;;;;;;10.11;100.00;97911.69;20810986;28;20053;-73
2023/03/10 07:36:01;;;;;;;3.72;1.10;;;;;;;9.01;100.00;97883.41;13266483;26;20319;-78
2023/03/10 07:46:03;;;;;;;14.80;6.35;;;;;;;8.84;100.00;97897.28;20766469;23;20053;-79
2023/03/10 07:56:05;;;;;;;5.18;2.03;;;;;;;8.70;100.00;97920.56;20840012;23;20612;-70
2023/03/10 08:06:06;;;;;;;5.80;1.52;;;;;;;8.82;100.00;97953.91;20802963;28;20957;-71
2023/03/10 08:16:07;;;;;;;9.98;1.50;;;;;;;9.03;100.00;97969.47;20821595;28;20057;-68
2023/03/10 08:26:09;;;;;;;13.30;3.55;;;;;;;8.95;100.00;97961.97;20813624;28;20057;-68
2023/03/10 08:36:10;;;;;;;19.02;6.55;;;;;;;9.10;100.00;97976.06;20811258;28;20100;-67
2023/03/10 08:46:11;;;;;;;22.10;5.13;;;;;;;9.28;100.00;97975.16;20817841;28;20381;-67
2023/03/10 08:56:13;;;;;;;15.85;4.68;;;;;;;9.74;100.00;97975.47;20818860;28;20420;-67
2023/03/10 09:06:14;;;;;;;14.38;4.45;;;;;;;9.59;100.00;97984.09;20817978;28;20119;-70
2023/03/10 09:16:15;;;;;;;22.88;7.32;;;;;;;9.44;100.00;97978.72;20800709;28;20045;-67
2023/03/10 09:26:17;;;;;;;34.80;11.52;;;;;;;9.76;100.00;97971.00;20817917;28;20064;-68
2023/03/10 09:36:18;;;;;;;41.50;13.32;;;;;;;9.95;100.00;97982.19;20815453;28;20057;-67
2023/03/10 09:46:22;;;;;;;36.30;12.83;;;;;;;9.82;100.00;97985.53;20816247;28;20045;-67
2023/03/10 09:56:23;;;;;;;21.27;7.40;;;;;;;9.98;100.00;97971.59;20816839;28;20057;-67
2023/03/10 10:06:25;;;;;;;16.15;3.95;;;;;;;10.41;100.00;97974.59;20814532;28;20123;-69
2023/03/10 10:16:30;;;;;;;9.23;1.90;;;;;;;10.24;100.00;97992.94;20813766;28;20063;-69
2023/03/10 10:26:35;;;;;;;7.15;1.33;;;;;;;10.09;100.00;98004.19;20814409;28;20054;-69
2023/03/10 10:36:36;;;;;;;4.70;0.70;;;;;;;10.19;100.00;97987.06;20805757;28;20312;-68
2023/03/10 10:46:37;;;;;;;5.95;1.70;;;;;;;10.78;100.00;98004.00;20802410;28;20152;-67
2023/03/10 10:56:39;;;;;;;5.50;1.00;;;;;;;10.81;100.00;97998.56;20811642;28;20111;-67
2023/03/10 11:06:40;;;;;;;6.40;0.85;;;;;;;10.79;100.00;98026.63;20810603;28;20089;-68
2023/03/10 11:16:41;;;;;;;5.55;0.95;;;;;;;10.87;100.00;98024.41;20807202;28;20065;-69
2023/03/10 11:26:43;;;;;;;3.05;0.90;;;;;;;10.71;100.00;98032.25;20816392;28;20473;-68
2023/03/10 11:36:44;;;;;;;3.00;0.50;;;;;;;10.39;100.00;98026.13;20826313;28;20053;-68
2023/03/10 11:46:56;;;;;;;2.15;0.47;;;;;;;10.30;100.00;98024.03;20826719;28;20524;-69
2023/03/10 11:56:57;;;;;;;4.57;0.60;;;;;;;10.41;100.00;98005.13;20825032;28;20509;-68
2023/03/10 12:06:59;;;;;;;2.45;0.50;;;;;;;10.40;100.00;98004.28;20824571;28;20046;-69
2023/03/10 12:17:00;;;;;;;1.38;0.40;;;;;;;10.26;100.00;98022.50;20822964;28;20482;-70
2023/03/10 12:27:01;;;;;;;2.15;0.40;;;;;;;10.21;100.00;98034.94;20822267;28;20049;-71
2023/03/10 12:37:02;;;;;;;1.02;0.20;;;;;;;9.91;100.00;98022.50;20822333;28;20563;-72
2023/03/10 12:47:04;;;;;;;2.45;0.88;;;;;;;9.94;100.00;98027.56;20820387;28;20528;-71
2023/03/10 12:57:05;;;;;;;1.38;0.60;;;;;;;9.55;100.00;98017.38;20822711;28;20494;-72
2023/03/10 13:07:06;;;;;;;3.38;1.42;;;;;;;9.27;100.00;97998.75;20821584;28;20902;-72
2023/03/10 13:17:08;;;;;;;1.98;0.32;;;;;;;9.20;100.00;98014.72;20822375;28;20485;-73
2023/03/10 13:27:09;;;;;;;1.48;0.60;;;;;;;9.42;100.00;98022.34;20822782;28;20056;-71
2023/03/10 13:37:11;;;;;;;3.08;0.52;;;;;;;9.65;100.00;98047.31;20820995;28;20054;-70
2023/03/10 13:47:12;;;;;;;2.00;0.65;;;;;;;9.61;100.00;98052.78;20822428;28;20061;-71
2023/03/10 13:57:13;;;;;;;2.17;1.30;;;;;;;9.60;100.00;98035.41;20839248;23;20111;-74
2023/03/10 14:07:17;;;;;;;6.25;1.15;;;;;;;9.31;100.00;98076.88;20811856;28;20482;-74
2023/03/10 14:17:19;;;;;;;1.85;0.65;;;;;;;9.24;100.00;98107.63;20811995;28;20054;-72
2023/03/10 14:27:20;;;;;;;1.85;0.80;;;;;;;9.24;100.00;98141.56;20814397;28;20472;-72
2023/03/10 14:37:22;;;;;;;2.33;0.90;;;;;;;9.30;100.00;98179.63;20811374;28;20053;-73
2023/03/10 14:47:24;;;;;;;2.70;0.60;;;;;;;9.10;100.00;98180.53;20806756;28;20057;-73
2023/03/10 14:57:25;;;;;;;2.30;0.80;;;;;;;8.81;100.00;98207.06;20807001;28;20141;-73
2023/03/10 15:07:28;;;;;;;3.25;0.60;;;;;;;8.91;100.00;98237.94;20822014;28;20460;-73
2023/03/10 15:17:30;;;;;;;12.10;1.02;;;;;;;8.98;100.00;98275.88;20823708;28;20072;-71
2023/03/10 15:27:31;;;;;;;6.47;1.00;;;;;;;9.16;100.00;98260.34;20824593;28;20107;-75
2023/03/10 15:37:32;;;;;;;5.43;1.48;;;;;;;9.09;100.00;98287.63;20823610;28;20061;-75
2023/03/10 15:47:34;;;;;;;7.85;1.30;;;;;;;9.17;100.00;98267.25;20813629;28;20056;-76
2023/03/10 15:57:35;;;;;;;6.03;1.38;;;;;;;9.02;100.00;98299.25;20822324;28;20080;-76
2023/03/10 16:07:37;;;;;;;6.93;2.10;;;;;;;8.93;100.00;98298.72;20822538;28;20065;-76
2023/03/10 16:17:38;;;;;;;8.80;1.80;;;;;;;8.63;100.00;98300.88;20824797;28;20492;-77
2023/03/10 16:27:39;;;;;;;7.07;1.10;;;;;;;8.54;100.00;98348.19;20835356;28;20057;-76
2023/03/10 16:37:41;;;;;;;8.02;1.45;;;;;;;8.52;100.00;98385.69;20818918;28;20077;-76
2023/03/10 16:47:42;;;;;;;7.80;1.10;;;;;;;8.48;100.00;98374.53;20817987;28;20049;-75
2023/03/10 16:57:44;;;;;;;8.52;1.45;;;;;;;7.72;100.00;98459.88;20817139;28;20053;-76
2023/03/10 17:07:45;;;;;;;6.88;1.30;;;;;;;7.26;100.00;98476.19;20805764;28;20104;-76
2023/03/10 17:17:56;;;;;;;9.25;1.95;;;;;;;7.25;100.00;98495.34;20806631;28;20085;-76
2023/03/10 17:27:59;;;;;;;5.57;1.30;;;;;;;7.25;100.00;98448.47;20807778;28;20068;-76
2023/03/10 17:38:00;;;;;;;3.30;1.10;;;;;;;7.05;100.00;98539.38;20804073;28;20045;-76
2023/03/10 17:48:02;;;;;;;3.55;1.20;;;;;;;6.97;100.00;98576.03;20795648;28;20485;-75
2023/03/10 17:58:03;;;;;;;4.32;1.45;;;;;;;6.96;100.00;98599.50;20786591;28;20051;-75
2023/03/10 18:08:05;;;;;;;6.00;1.50;;;;;;;6.88;100.00;98563.28;20790991;28;20100;-75
2023/03/10 18:18:06;;;;;;;5.97;1.58;;;;;;;6.92;100.00;98590.91;20797776;28;20077;-76
2023/03/10 18:28:07;;;;;;;10.82;2.67;;;;;;;6.34;100.00;98627.25;20798571;28;20084;-74
2023/03/10 18:38:08;;;;;;;3.40;1.30;;;;;;;6.35;100.00;98639.34;20797222;28;20069;-74
2023/03/10 18:48:10;;;;;;;2.35;0.90;;;;;;;6.40;100.00;98679.06;20797432;28;20115;-75
2023/03/10 18:58:11;;;;;;;1.67;0.70;;;;;;;6.33;100.00;98687.91;20800101;28;20136;-74
2023/03/10 19:08:12;;;;;;;3.00;1.00;;;;;;;6.06;100.00;98736.22;20794964;28;20049;-75
2023/03/10 19:18:13;;;;;;;2.25;1.10;;;;;;;5.60;100.00;98803.91;20801349;28;20490;-75
2023/03/10 19:28:15;;;;;;;2.08;1.02;;;;;;;5.30;100.00;98775.13;20800479;28;20488;-75
2023/03/10 19:38:16;;;;;;;1.42;0.73;;;;;;;5.43;100.00;98822.44;20801534;28;20071;-75
2023/03/10 19:48:17;;;;;;;2.35;0.75;;;;;;;5.32;100.00;98891.88;20801755;28;20057;-75
2023/03/10 19:58:19;;;;;;;1.98;0.90;;;;;;;5.17;100.00;98950.06;20813798;28;20053;-75
2023/03/10 20:08:20;;;;;;;3.20;0.80;;;;;;;5.08;100.00;98997.81;20802113;28;20053;-75
2023/03/10 20:18:21;;;;;;;2.28;1.00;;;;;;;4.98;100.00;99026.47;20802727;28;20152;-75
2023/03/10 20:28:22;;;;;;;3.50;1.30;;;;;;;4.89;100.00;99041.31;20803734;28;20399;-75
2023/03/10 20:38:24;;;;;;;3.38;1.10;;;;;;;4.79;100.00;99080.34;20802544;28;20742;-75
2023/03/10 20:48:25;;;;;;;1.77;0.90;;;;;;;4.77;100.00;99129.66;20800501;28;20057;-75
2023/03/10 20:58:26;;;;;;;2.63;1.20;;;;;;;4.74;100.00;99181.53;20799553;28;20060;-75
2023/03/10 21:08:27;;;;;;;1.55;0.85;;;;;;;4.78;100.00;99221.25;20799526;28;20041;-75
2023/03/10 21:18:29;;;;;;;2.10;1.05;;;;;;;4.72;100.00;99217.00;20794238;28;20049;-75
2023/03/10 21:28:30;;;;;;;3.33;0.90;;;;;;;4.57;100.00;99240.50;20795426;28;20053;-75
2023/03/10 21:38:31;;;;;;;3.38;0.98;;;;;;;4.44;100.00;99228.53;20799877;28;20057;-75
2023/03/10 21:48:33;;;;;;;2.03;0.85;;;;;;;4.51;100.00;99237.97;20775571;28;20463;-75
2023/03/10 21:58:34;;;;;;;3.17;0.90;;;;;;;4.41;100.00;99236.31;20761318;28;20069;-74
2023/03/10 22:08:35;;;;;;;1.00;0.70;;;;;;;4.33;100.00;99221.72;20776315;28;20053;-76
2023/03/10 22:18:36;;;;;;;2.67;1.05;;;;;;;4.41;100.00;99236.31;20793757;28;20576;-77
2023/03/10 22:28:38;;;;;;;2.75;1.02;;;;;;;4.34;100.00;99274.41;20734473;28;20482;-74
2023/03/10 22:38:39;;;;;;;3.13;1.10;;;;;;;4.29;100.00;99302.09;20740404;28;20521;-74
2023/03/10 22:48:40;;;;;;;2.65;1.15;;;;;;;4.23;100.00;99310.78;20756944;28;20062;-74
2023/03/10 22:58:42;;;;;;;3.72;1.40;;;;;;;4.14;100.00;99325.53;20770089;28;20049;-76
2023/03/10 23:08:45;;;;;;;3.35;1.27;;;;;;;4.03;100.00;99329.06;20789319;28;20504;-76
2023/03/10 23:18:46;;;;;;;3.50;1.33;;;;;;;3.98;100.00;99328.22;20750122;28;20112;-74
2023/03/10 23:28:47;;;;;;;2.08;1.00;;;;;;;3.80;100.00;99347.31;20749497;28;20057;-74
2023/03/10 23:38:49;;;;;;;2.50;1.20;;;;;;;3.86;100.00;99375.75;20800110;23;20524;-80
2023/03/10 23:48:51;;;;;;;3.08;1.23;;;;;;;3.67;100.00;99392.25;20800142;28;20136;-80
2023/03/10 23:58:52;;;;;;;3.17;1.40;;;;;;;3.28;100.00;99409.63;20816783;28;20111;-81
